Time;durP1;ratioP1;P1;durP2;ratioP2;P2;SDS_P1;SDS_P2;PMS_P1;PMS_P2;Temp;Humidity;BMP_temperature;BMP_pressure;BME280_temperature;BME280_humidity;BME280_pressure;Samples;Min_cycle;Max_cycle;Signal;HPM_P1;HPM_P2
2022/04/12 00:04:16;;;;;;;;;4.00;3.20;;;;;15.09;100.00;100281.84;6330504;22;44876;-85
2022/04/12 00:06:42;;;;;;;;;5.50;3.50;;;;;15.10;100.00;100281.69;6348337;22;44855;-84
2022/04/12 00:27:19;;;;;;;;;;;;;;;;;;;;;
2022/04/12 00:47:25;;;;;;;;;;;;;;;;;;;;;
2022/04/12 02:32:22;;;;;;;;;;;;;;;;;;;;;
2022/04/12 02:35:34;;;;;;;;;;;;;;;;;;;;;
2022/04/12 02:45:52;;;;;;;;;5.50;5.50;;;;;12.93;100.00;100258.25;5921159;24;45397;-85
2022/04/12 02:48:23;;;;;;;;;6.40;5.60;;;;;12.95;100.00;100261.59;5894313;24;46629;-83
2022/04/12 02:55:16;;;;;;;;;;;;;;;;;;;;;
2022/04/12 03:05:16;;;;;;;;;;;;;;;;;;;;;
2022/04/12 04:17:45;;;;;;;;;6.60;3.60;;;;;12.91;100.00;100225.53;6313930;22;45287;-87
2022/04/12 04:20:27;;;;;;;;;4.20;4.20;;;;;12.89;100.00;100219.47;6316665;22;45307;-85
2022/04/12 04:22:53;;;;;;;;;3.00;2.80;;;;;12.91;100.00;100230.88;6283264;22;44747;-85
2022/04/12 04:25:18;;;;;;;;;3.75;3.00;;;;;12.91;100.00;100246.00;6255367;22;45188;-87
2022/04/12 04:27:44;;;;;;;;;5.50;5.50;;;;;12.88;100.00;100230.28;6280311;22;46495;-85
2022/04/12 04:30:18;;;;;;;;;5.00;5.00;;;;;12.85;100.00;100240.22;6287696;22;45275;-86
2022/04/12 04:32:46;;;;;;;;;5.00;4.40;;;;;12.84;100.00;100251.00;6320957;22;45084;-87
2022/04/12 04:35:12;;;;;;;;;3.00;3.00;;;;;12.79;100.00;100235.41;6293405;22;45310;-86
2022/04/12 04:37:49;;;;;;;;;7.80;5.40;;;;;12.75;100.00;100233.97;6292110;22;45485;-85
2022/04/12 04:40:20;;;;;;;;;4.60;3.00;;;;;12.73;100.00;100243.09;6293765;22;45204;-86
2022/04/12 04:42:45;;;;;;;;;3.00;3.00;;;;;12.68;100.00;100237.28;6318919;22;45228;-86
2022/04/12 04:45:12;;;;;;;;;6.75;4.50;;;;;12.63;100.00;100242.16;6287853;22;45285;-87
2022/04/12 04:47:50;;;;;;;;;5.00;4.00;;;;;12.58;100.00;100250.53;6325127;22;45294;-87
2022/04/12 04:50:21;;;;;;;;;9.60;4.60;;;;;12.54;100.00;100249.09;6283505;22;45229;-87
2022/04/12 04:52:46;;;;;;;;;4.40;3.80;;;;;12.48;100.00;100263.78;6311457;22;45209;-88
2022/04/12 04:55:15;;;;;;;;;3.00;3.00;;;;;12.41;100.00;100267.06;6335638;22;45546;-87
2022/04/12 04:57:42;;;;;;;;;4.00;3.80;;;;;12.33;100.00;100265.88;6311370;22;45280;-86
2022/04/12 05:00:16;;;;;;;;;4.20;4.20;;;;;12.30;100.00;100267.94;6259461;22;44739;-88
2022/04/12 05:02:47;;;;;;;;;3.80;3.80;;;;;12.25;100.00;100265.66;6289180;22;44582;-87
2022/04/12 05:05:14;;;;;;;;;3.00;3.00;;;;;12.19;100.00;100271.50;6287346;22;44839;-87
2022/04/12 05:07:41;;;;;;;;;1.50;1.50;;;;;12.14;100.00;100267.50;6311259;22;45228;-88
2022/04/12 05:10:12;;;;;;;;;4.40;4.40;;;;;12.12;100.00;100272.94;6282159;22;45404;-87
2022/04/12 05:12:38;;;;;;;;;7.00;6.50;;;;;12.11;100.00;100273.06;6282108;22;44714;-88
2022/04/12 05:15:07;;;;;;;;;4.00;4.00;;;;;12.06;100.00;100284.09;6309284;22;45486;-88
2022/04/12 05:17:55;;;;;;;;;7.00;5.25;;;;;12.06;100.00;100282.28;6251320;22;46998;-87
2022/04/12 05:20:26;;;;;;;;;4.00;4.00;;;;;12.03;100.00;100289.66;6283135;22;45439;-87
2022/04/12 05:22:55;;;;;;;;;6.80;5.20;;;;;12.00;100.00;100296.09;6311534;22;44681;-87
2022/04/12 05:25:21;;;;;;;;;5.00;5.00;;;;;11.98;100.00;100299.81;6287455;22;45787;-88
2022/04/12 05:27:49;;;;;;;;;4.75;4.00;;;;;11.94;100.00;100287.72;6290111;22;46905;-87
2022/04/12 05:30:16;;;;;;;;;6.20;6.00;;;;;11.96;100.00;100293.78;6285935;22;44809;-88
2022/04/12 05:32:42;;;;;;;;;5.00;5.00;;;;;11.99;100.00;100296.19;6315562;22;44626;-86
2022/04/12 05:35:09;;;;;;;;;9.50;7.50;;;;;11.99;100.00;100301.50;6316816;22;44772;-87
2022/04/12 05:37:52;;;;;;;;;8.00;6.00;;;;;12.00;100.00;100300.56;6321835;22;46278;-87
2022/04/12 05:40:19;;;;;;;;;5.00;5.00;;;;;12.02;100.00;100291.47;6323402;22;45183;-88
2022/04/12 05:46:31;;;;;;;;;7.75;4.50;;;;;12.20;100.00;100301.63;6332722;22;44824;-89
2022/04/12 05:48:57;;;;;;;;;6.20;6.20;;;;;12.28;100.00;100305.38;6323406;22;45008;-89
2022/04/12 05:51:34;;;;;;;;;9.75;6.50;;;;;12.36;100.00;100299.41;6325153;22;44716;-90
2022/04/12 05:54:02;;;;;;;;;6.20;5.40;;;;;12.47;100.00;100315.34;6298336;22;44645;-92
2022/04/12 05:56:28;;;;;;;;;7.50;6.50;;;;;12.59;100.00;100319.69;6349061;22;44822;-92
2022/04/12 05:58:53;;;;;;;;;6.75;6.25;;;;;12.72;100.00;100308.03;6298266;22;46405;-91
2022/04/12 06:01:32;;;;;;;;;2.50;2.00;;;;;12.86;100.00;100321.03;6299748;22;45168;-90
2022/04/12 06:03:59;;;;;;;;;5.80;5.00;;;;;13.02;100.00;100321.47;6298803;22;44731;-89
2022/04/12 06:06:27;;;;;;;;;6.50;6.50;;;;;13.15;100.00;100321.28;6330792;22;44835;-89
2022/04/12 06:08:54;;;;;;;;;7.00;4.25;;;;;13.28;100.00;100329.09;6356556;22;46877;-92
2022/04/12 06:11:19;;;;;;;;;7.20;4.80;;;;;13.38;100.00;100317.50;6332827;22;44818;-91
2022/04/12 06:13:45;;;;;;;;;5.75;5.25;;;;;13.59;100.00;100322.00;6304955;22;44670;-91
2022/04/12 06:16:10;;;;;;;;;6.25;4.50;;;;;13.76;100.00;100326.72;6329338;22;44800;-91
2022/04/12 06:18:37;;;;;;;;;8.25;5.50;;;;;13.90;100.00;100314.84;6299596;22;45221;-90
2022/04/12 06:21:04;;;;;;;;;6.80;5.20;;;;;13.99;100.00;100318.53;6294427;22;44725;-92
2022/04/12 06:23:30;;;;;;;;;5.80;5.40;;;;;14.09;100.00;100322.09;6258161;22;44749;-91
2022/04/12 06:25:57;;;;;;;;;4.50;4.00;;;;;14.22;100.00;100325.38;6292797;22;44873;-92
2022/04/12 06:28:22;;;;;;;;;5.40;4.00;;;;;14.37;100.00;100329.34;6292724;22;46695;-93
2022/04/12 06:30:49;;;;;;;;;8.20;8.20;;;;;14.49;100.00;100330.09;6319447;22;44613;-94
2022/04/12 06:33:15;;;;;;;;;6.25;6.25;;;;;14.55;100.00;100340.25;6280734;22;44774;-85
2022/04/12 06:35:40;;;;;;;;;5.50;4.25;;;;;14.62;100.00;100351.22;6279805;22;45383;-85
2022/04/12 06:38:06;;;;;;;;;3.25;2.00;;;;;14.74;100.00;100355.44;6281028;22;46628;-86
2022/04/12 06:40:34;;;;;;;;;5.00;3.00;;;;;14.83;100.00;100359.97;6283606;22;45399;-84
2022/04/12 06:43:00;;;;;;;;;4.60;4.60;;;;;14.86;100.00;100359.69;6285903;22;44781;-86
2022/04/12 06:45:30;;;;;;;;;4.25;4.25;;;;;14.92;100.00;100360.97;6284192;22;44819;-86
2022/04/12 06:47:59;;;;;;;;;4.80;4.00;;;;;15.01;100.00;100372.66;6308353;22;45526;-84
2022/04/12 06:50:26;;;;;;;;;9.60;6.00;;;;;15.07;100.00;100370.25;6283996;22;44717;-84
2022/04/12 06:52:56;;;;;;;;;6.00;4.60;;;;;15.17;100.00;100375.59;6313417;22;45361;-85
2022/04/12 06:55:22;;;;;;;;;7.40;5.80;;;;;15.30;100.00;100369.97;6285368;22;44880;-85
2022/04/12 06:57:52;;;;;;;;;5.00;5.00;;;;;15.40;100.00;100373.47;6285577;22;47010;-84
2022/04/12 07:00:20;;;;;;;;;4.00;4.00;;;;;15.49;100.00;100382.50;6320736;22;44740;-85
2022/04/12 07:02:48;;;;;;;;;7.00;5.75;;;;;15.56;100.00;100397.84;6282773;22;44702;-84
2022/04/12 07:05:14;;;;;;;;;3.80;3.80;;;;;15.63;100.00;100400.81;6311540;22;45448;-86
2022/04/12 07:07:41;;;;;;;;;4.40;4.20;;;;;15.66;100.00;100401.41;6280465;22;45483;-85
2022/04/12 07:10:12;;;;;;;;;6.20;5.00;;;;;15.67;100.00;100394.22;6280041;22;45308;-85
2022/04/12 07:12:38;;;;;;;;;5.40;5.40;;;;;15.71;100.00;100403.63;6281435;22;44748;-85
2022/04/12 07:15:04;;;;;;;;;4.80;4.00;;;;;15.76;100.00;100416.56;6311994;22;45331;-85
2022/04/12 07:17:30;;;;;;;;;3.00;3.00;;;;;15.85;100.00;100419.22;6322946;22;46790;-86
2022/04/12 07:19:58;;;;;;;;;6.25;5.25;;;;;15.87;100.00;100424.47;6255258;22;44628;-85
2022/04/12 07:22:25;;;;;;;;;10.40;5.60;;;;;15.88;100.00;100416.28;6291307;22;45294;-83
2022/04/12 07:24:50;;;;;;;;;4.00;4.00;;;;;15.96;100.00;100431.66;6279307;22;44800;-86
2022/04/12 07:27:15;;;;;;;;;8.25;5.00;;;;;16.05;100.00;100427.22;6251723;22;45088;-84
2022/04/12 07:29:41;;;;;;;;;5.50;5.25;;;;;16.16;100.00;100419.88;6249705;22;44726;-84
2022/04/12 07:32:07;;;;;;;;;7.50;6.00;;;;;16.28;100.00;100417.00;6248579;22;44805;-84
2022/04/12 07:34:32;;;;;;;;;2.75;2.75;;;;;16.37;100.00;100429.50;6277332;22;45230;-86
2022/04/12 07:36:58;;;;;;;;;7.00;5.50;;;;;16.47;100.00;100427.63;6277937;22;45574;-86
2022/04/12 07:39:24;;;;;;;;;9.25;4.50;;;;;16.53;100.00;100427.03;6248759;22;45360;-84
2022/04/12 07:41:51;;;;;;;;;4.80;4.80;;;;;16.64;100.00;100417.97;6301615;22;44804;-84
2022/04/12 07:44:18;;;;;;;;;3.60;3.40;;;;;16.76;100.00;100419.47;6250430;22;45494;-85
2022/04/12 07:46:44;;;;;;;;;5.20;4.00;;;;;16.90;100.00;100405.53;6279703;22;45296;-85
2022/04/12 07:49:10;;;;;;;;;2.25;2.00;;;;;17.01;100.00;100409.00;6310439;22;44740;-84
2022/04/12 07:51:37;;;;;;;;;8.20;5.80;;;;;17.09;100.00;100417.97;6285200;22;45360;-85
2022/04/12 07:54:04;;;;;;;;;6.20;4.60;;;;;17.10;100.00;100416.97;6258409;22;44821;-84
2022/04/12 07:56:31;;;;;;;;;11.00;6.60;;;;;17.11;100.00;100412.44;6283589;22;45046;-85
2022/04/12 07:58:56;;;;;;;;;9.00;4.00;;;;;17.21;100.00;100414.09;6282251;22;45222;-84
2022/04/12 08:01:22;;;;;;;;;5.40;4.80;;;;;17.38;100.00;100406.16;6285716;22;44670;-84
2022/04/12 08:03:48;;;;;;;;;8.75;4.00;;;;;17.59;100.00;100400.44;6291573;22;45115;-85
2022/04/12 08:06:14;;;;;;;;;8.00;3.00;;;;;17.77;100.00;100389.69;6285829;22;45275;-84
2022/04/12 08:08:39;;;;;;;;;6.25;4.00;;;;;17.94;100.00;100402.25;6289443;22;45234;-83
2022/04/12 08:11:04;;;;;;;;;2.25;2.25;;;;;17.98;100.00;100399.06;6258938;22;44734;-87
2022/04/12 08:13:31;;;;;;;;;6.00;4.25;;;;;17.97;100.00;100393.84;6280588;22;44828;-85
2022/04/12 08:15:57;;;;;;;;;5.00;3.40;;;;;17.94;100.00;100389.66;6256987;22;46924;-86
2022/04/12 08:18:22;;;;;;;;;4.40;3.80;;;;;17.98;100.00;100396.38;6281958;22;44884;-86
2022/04/12 08:20:51;;;;;;;;;5.00;3.25;;;;;18.15;100.00;100402.69;6294021;22;44761;-87
2022/04/12 08:23:17;;;;;;;;;3.60;2.00;;;;;18.26;100.00;100404.25;6324208;22;44871;-85
2022/04/12 08:25:43;;;;;;;;;5.50;2.00;;;;;18.37;100.00;100400.44;6348586;22;46139;-87
2022/04/12 08:28:09;;;;;;;;;3.50;1.75;;;;;18.54;100.00;100402.22;6346269;22;44748;-85
2022/04/12 08:30:35;;;;;;;;;3.60;3.00;;;;;18.66;100.00;100402.75;6321502;22;44787;-86
2022/04/12 08:33:01;;;;;;;;;3.25;1.75;;;;;18.70;100.00;100402.28;6295753;22;44869;-85
2022/04/12 08:35:52;;;;;;;;;3.00;3.00;;;;;18.68;100.00;100392.66;6297626;22;45127;-85
2022/04/12 08:38:26;;;;;;;;;3.00;1.00;;;;;18.77;100.00;100389.03;6329235;22;44775;-88
2022/04/12 08:44:33;;;;;;;;;2.00;2.00;;;;;18.86;96.79;100390.75;6318199;22;44682;-88
2022/04/12 08:47:04;;;;;;;;;3.00;1.40;;;;;18.92;98.28;100397.31;6294043;22;45127;-85
2022/04/12 08:49:43;;;;;;;;;2.40;2.00;;;;;19.04;97.10;100398.66;6324994;22;44740;-86
2022/04/12 08:52:11;;;;;;;;;2.20;1.80;;;;;19.12;96.94;100395.16;6297941;22;44686;-86
2022/04/12 08:55:03;;;;;;;;;4.40;3.00;;;;;19.19;96.53;100398.84;6298892;22;44828;-86
2022/04/12 08:57:29;;;;;;;;;4.00;2.00;;;;;19.28;96.35;100395.16;6327300;22;45104;-86
2022/04/12 08:59:55;;;;;;;;;7.25;1.00;;;;;19.30;93.83;100395.84;6346593;22;44747;-88
2022/04/12 09:02:22;;;;;;;;;3.00;1.80;;;;;19.32;94.98;100407.28;6325276;22;44609;-87
2022/04/12 09:04:48;;;;;;;;;1.00;1.00;;;;;19.38;96.04;100403.06;6291107;22;44768;-87
2022/04/12 09:07:27;;;;;;;;;1.50;1.00;;;;;19.43;97.08;100396.16;6342985;22;46928;-85
2022/04/12 09:10:35;;;;;;;;;;;;;;;;;;;;;
2022/04/12 09:13:26;;;;;;;;;3.40;1.80;;;;;19.54;95.68;100388.78;6321307;22;68155;-86
2022/04/12 09:16:11;;;;;;;;;2.40;2.40;;;;;19.68;92.80;100388.97;6316161;22;44817;-84
2022/04/12 09:22:39;;;;;;;;;1.80;1.80;;;;;19.87;91.66;100400.38;6177942;23;44723;-89
2022/04/12 09:25:10;;;;;;;;;1.60;1.60;;;;;19.87;90.81;100398.53;6162636;23;44829;-88
2022/04/12 09:27:47;;;;;;;;;3.00;3.00;;;;;19.88;91.43;100397.53;6162369;23;44862;-87
2022/04/12 09:30:18;;;;;;;;;2.20;2.00;;;;;20.03;89.18;100398.50;6164595;23;45250;-87
2022/04/12 09:32:54;;;;;;;;;2.00;2.00;;;;;20.09;89.93;100390.72;6167788;23;44706;-87
2022/04/12 09:35:21;;;;;;;;;1.80;0.60;;;;;20.07;92.10;100390.06;6140245;23;44701;-88
2022/04/12 09:37:47;;;;;;;;;5.00;2.00;;;;;20.05;88.29;100395.63;6112169;23;44827;-87
2022/04/12 09:40:17;;;;;;;;;2.50;1.00;;;;;19.99;88.94;100389.06;6135675;23;45618;-88
2022/04/12 09:42:50;;;;;;;;;1.20;1.00;;;;;20.06;90.24;100389.19;6136909;23;44730;-89
2022/04/12 09:45:24;;;;;;;;;0.00;0.00;;;;;20.01;87.25;100388.88;6166774;23;44791;-87
2022/04/12 09:47:52;;;;;;;;;4.20;2.00;;;;;20.10;90.78;100374.38;6172955;23;44846;-90
2022/04/12 09:50:22;;;;;;;;;2.00;2.00;;;;;20.08;89.85;100371.00;6141600;23;46569;-89
2022/04/12 09:52:55;;;;;;;;;2.80;0.40;;;;;20.21;89.98;100365.06;6156665;23;44763;-88
2022/04/12 09:55:46;;;;;;;;;4.00;2.00;;;;;20.33;89.96;100371.75;6134076;23;44627;-88
2022/04/12 09:58:14;;;;;;;;;2.40;1.00;;;;;20.21;87.21;100374.00;6280924;22;44683;-86
2022/04/12 10:00:45;;;;;;;;;2.00;2.00;;;;;20.20;89.62;100372.31;6343643;22;45953;-88
2022/04/12 10:03:13;;;;;;;;;6.20;2.40;;;;;20.27;88.40;100383.25;6293192;22;44773;-89
2022/04/12 10:05:39;;;;;;;;;2.00;2.00;;;;;20.26;89.18;100374.31;6296857;22;44714;-88
2022/04/12 10:08:06;;;;;;;;;4.00;2.00;;;;;20.16;89.32;100372.81;6293233;22;44860;-87
2022/04/12 10:10:32;;;;;;;;;1.20;1.20;;;;;20.37;89.73;100377.66;6319243;22;45399;-89
2022/04/12 10:12:59;;;;;;;;;1.80;1.60;;;;;20.52;90.53;100373.22;6321610;22;45161;-88
2022/04/12 10:15:26;;;;;;;;;4.60;2.00;;;;;20.47;89.30;100368.38;6324502;22;44553;-90
2022/04/12 10:17:54;;;;;;;;;2.60;2.20;;;;;20.57;90.00;100346.56;6320198;22;44781;-89
2022/04/12 10:20:23;;;;;;;;;1.80;1.00;;;;;20.70;89.58;100345.97;6288748;22;45079;-89
2022/04/12 10:22:49;;;;;;;;;1.00;1.00;;;;;20.81;88.89;100345.56;6312740;22;44735;-88
2022/04/12 10:25:21;;;;;;;;;3.20;1.40;;;;;20.79;89.58;100342.19;6287248;22;45505;-89
2022/04/12 10:28:03;;;;;;;;;2.00;2.00;;;;;20.89;89.50;100342.81;6297762;22;44886;-89
2022/04/12 10:30:35;;;;;;;;;2.60;2.00;;;;;21.01;89.13;100344.06;6299751;22;45827;-87
2022/04/12 10:33:02;;;;;;;;;1.20;1.20;;;;;20.94;89.28;100337.72;6293440;22;45361;-84
2022/04/12 10:36:02;;;;;;;;;4.80;2.40;;;;;20.98;88.35;100339.03;6327646;22;44656;-88
2022/04/12 10:38:49;;;;;;;;;5.60;2.20;;;;;20.86;88.28;100335.06;6308772;22;44821;-89
2022/04/12 10:41:42;;;;;;;;;6.40;4.40;;;;;20.81;90.00;100325.81;6297811;22;45513;-87
2022/04/12 10:44:20;;;;;;;;;1.60;1.60;;;;;20.64;90.32;100343.97;6200629;22;44792;-87
2022/04/12 10:47:17;;;;;;;;;1.00;1.00;;;;;20.64;89.51;100350.22;6221839;22;44791;-89
2022/04/12 10:53:42;;;;;;;;;5.40;2.00;;;;;20.88;89.89;100368.13;6106694;23;45257;-89
2022/04/12 11:00:49;;;;;;;;;3.00;1.80;;;;;21.04;87.01;100361.78;5908265;24;44923;-88
2022/04/12 11:07:32;;;;;;;;;2.00;2.00;;;;;21.19;87.82;100370.78;5876718;24;44970;-90
2022/04/12 11:11:11;;;;;;;;;;;;;;;;;;;;;
2022/04/12 11:14:50;;;;;;;;;1.20;1.20;;;;;21.22;87.60;100392.03;5876233;24;69706;-89
2022/04/12 12:34:07;;;;;;;;;3.40;1.20;;;;;22.43;82.81;100390.22;4914544;28;44821;-88
2022/04/12 12:36:33;;;;;;;;;4.20;3.00;;;;;22.46;82.21;100389.84;4929951;28;44967;-87
2022/04/12 12:39:39;;;;;;;;;2.00;2.00;;;;;22.36;82.20;100394.72;4929524;28;45302;-88
2022/04/12 12:42:26;;;;;;;;;1.40;1.40;;;;;22.28;83.07;100411.88;4904525;28;46624;-88
2022/04/12 12:45:07;;;;;;;;;2.20;1.00;;;;;22.27;83.28;100415.63;4931305;28;44845;-88
2022/04/12 12:47:46;;;;;;;;;6.60;2.00;;;;;22.29;82.11;100406.28;4913780;28;44760;-88
2022/04/12 12:50:44;;;;;;;;;1.20;1.20;;;;;22.31;82.21;100411.50;4930985;28;44908;-88
2022/04/12 12:53:52;;;;;;;;;2.80;1.40;;;;;22.41;81.89;100400.41;4928434;28;46765;-87
2022/04/12 12:56:51;;;;;;;;;1.00;1.00;;;;;22.40;82.57;100423.09;4882970;29;45374;-89
2022/04/12 12:59:33;;;;;;;;;3.60;2.00;;;;;22.54;81.81;100412.25;4863339;29;44827;-89
2022/04/12 13:02:23;;;;;;;;;;;;;;;;;;;;;
2022/04/12 13:04:53;;;;;;;;;3.00;1.80;;;;;22.92;78.58;100414.81;4926536;28;74618;-88
2022/04/12 13:07:45;;;;;;;;;3.60;3.00;;;;;22.68;78.53;100428.66;4927979;28;44875;-89
2022/04/12 13:10:55;;;;;;;;;1.80;1.80;;;;;22.84;77.65;100426.56;4988148;28;44847;-88
2022/04/12 13:37:10;;;;;;;;;;;;;;;;;;;;;
2022/04/12 13:43:08;;;;;;;;;3.80;1.00;;;;;23.78;74.34;100436.53;4844831;29;44936;-88
2022/04/12 13:49:29;;;;;;;;;;;;;;;;;;;;;
2022/04/12 13:51:59;;;;;;;;;2.80;1.80;;;;;24.06;70.01;100429.22;4864353;29;70346;-89
2022/04/12 13:54:31;;;;;;;;;3.60;2.00;;;;;24.07;69.86;100435.50;4852391;29;45555;-86
2022/04/12 13:57:01;;;;;;;;;3.00;2.00;;;;;24.30;69.11;100427.94;4854638;29;44918;-87
2022/04/12 14:00:09;;;;;;;;;3.40;2.00;;;;;24.66;69.01;100428.75;4866854;29;44675;-88
2022/04/12 14:03:04;;;;;;;;;1.40;1.00;;;;;25.03;67.64;100430.16;4849202;29;45010;-88
2022/04/12 14:06:02;;;;;;;;;;;;;;;;;;;;;
2022/04/12 14:08:37;;;;;;;;;0.20;0.20;;;;;25.69;66.93;100426.75;4910587;28;72238;-87
2022/04/12 14:11:24;;;;;;;;;2.00;2.00;;;;;25.88;63.77;100434.09;4967509;28;44854;-89
2022/04/12 14:17:28;;;;;;;;;3.00;2.00;;;;;26.08;60.82;100448.53;4966902;28;44933;-88
2022/04/12 14:19:53;;;;;;;;;2.20;1.40;;;;;25.97;60.47;100453.78;4956585;28;44860;-88
2022/04/12 14:22:25;;;;;;;;;3.00;2.00;;;;;25.98;61.20;100453.56;4985971;28;45506;-89
2022/04/12 14:24:51;;;;;;;;;1.00;1.00;;;;;25.84;60.54;100447.28;4958621;28;44910;-88
2022/04/12 14:27:19;;;;;;;;;5.00;3.75;;;;;25.70;62.25;100436.56;4967824;28;45145;-90
2022/04/12 14:29:57;;;;;;;;;2.00;2.00;;;;;25.71;63.03;100439.06;4958444;28;44776;-92
2022/04/12 14:32:25;;;;;;;;;1.40;1.00;;;;;25.97;63.16;100438.28;4966736;28;44989;-88
2022/04/12 14:34:53;;;;;;;;;2.00;2.00;;;;;26.08;60.83;100440.34;4974340;28;44883;-89
2022/04/12 14:37:41;;;;;;;;;0.00;0.00;;;;;26.07;58.81;100440.56;4969984;28;45173;-89
2022/04/12 14:40:08;;;;;;;;;3.00;1.40;;;;;25.85;58.33;100448.13;4983976;28;45461;-90
2022/04/12 14:42:43;;;;;;;;;1.20;1.20;;;;;25.40;59.76;100447.00;4964609;28;44834;-89
2022/04/12 14:45:15;;;;;;;;;2.00;2.00;;;;;25.40;62.64;100441.56;4962413;28;44976;-88
2022/04/12 14:47:43;;;;;;;;;4.20;2.00;;;;;25.31;61.36;100441.75;4962423;28;46279;-88
2022/04/12 14:50:13;;;;;;;;;1.80;1.80;;;;;25.34;62.46;100432.38;4979364;28;44778;-89
2022/04/12 14:52:44;;;;;;;;;2.60;1.40;;;;;24.94;64.73;100434.94;4986014;28;44898;-90
2022/04/12 14:55:11;;;;;;;;;2.20;1.60;;;;;25.14;66.44;100440.44;4993740;28;44886;-89
2022/04/12 14:57:39;;;;;;;;;1.40;1.40;;;;;25.44;66.03;100443.69;4985298;28;45183;-88
2022/04/12 15:00:41;;;;;;;;;4.40;2.00;;;;;25.67;64.74;100445.16;4997239;28;45445;-89
2022/04/12 15:03:22;;;;;;;;;2.60;2.00;;;;;25.59;63.41;100448.94;4996689;28;45113;-90
2022/04/12 15:05:54;;;;;;;;;2.40;2.40;;;;;24.75;63.81;100457.44;5027175;28;45089;-87
2022/04/12 15:08:24;;;;;;;;;2.00;2.00;;;;;24.67;67.69;100463.06;5012609;28;46738;-90
2022/04/12 15:10:51;;;;;;;;;2.40;2.00;;;;;24.75;66.41;100462.88;5031239;28;44791;-87
2022/04/12 15:13:18;;;;;;;;;3.00;2.00;;;;;24.38;67.86;100456.00;5016642;28;44692;-87
2022/04/12 15:15:46;;;;;;;;;2.40;2.40;;;;;23.97;70.40;100459.44;5005677;28;44933;-89
2022/04/12 15:18:18;;;;;;;;;1.00;1.00;;;;;23.97;70.69;100465.69;5016935;28;45425;-89
2022/04/12 15:20:49;;;;;;;;;5.80;4.40;;;;;23.67;72.51;100469.63;4991514;28;44834;-89
2022/04/12 15:23:17;;;;;;;;;2.40;2.00;;;;;23.46;74.01;100468.56;5018568;28;45306;-90
2022/04/12 15:25:43;;;;;;;;;2.00;2.00;;;;;23.24;75.55;100475.81;5015159;28;45413;-88
2022/04/12 15:28:17;;;;;;;;;5.00;2.00;;;;;23.25;76.99;100466.66;5028663;28;46549;-89
2022/04/12 15:30:43;;;;;;;;;3.80;3.80;;;;;23.40;77.92;100473.91;5030535;28;45086;-89
2022/04/12 15:33:09;;;;;;;;;2.00;2.00;;;;;23.50;77.44;100466.31;5011210;28;44811;-89
2022/04/12 15:35:36;;;;;;;;;4.25;2.00;;;;;23.56;77.99;100469.06;5029888;28;44766;-88
2022/04/12 15:38:06;;;;;;;;;3.40;2.00;;;;;23.60;78.13;100470.38;5019300;28;45461;-89
2022/04/12 15:40:45;;;;;;;;;2.60;2.60;;;;;23.58;77.67;100471.59;5027722;28;44839;-88
2022/04/12 15:43:11;;;;;;;;;4.00;2.80;;;;;23.55;79.81;100480.97;5021111;28;44806;-85
2022/04/12 15:49:16;;;;;;;;;2.40;2.00;;;;;23.78;79.61;100504.34;5002508;28;45111;-89
2022/04/12 15:54:55;;;;;;;;;2.60;1.00;;;;;22.87;84.22;100505.75;5006141;28;45486;-90
2022/04/12 15:57:21;;;;;;;;;2.00;2.00;;;;;22.73;85.36;100504.78;4990502;28;44881;-89
2022/04/12 16:00:03;;;;;;;;;4.50;3.00;;;;;22.41;87.56;100497.84;5002102;28;45369;-89
2022/04/12 16:02:34;;;;;;;;;3.00;3.00;;;;;22.00;89.82;100507.19;5012136;28;44892;-88
2022/04/12 16:04:59;;;;;;;;;2.00;2.00;;;;;21.50;92.31;100515.84;5001854;28;44849;-89
2022/04/12 16:07:25;;;;;;;;;3.75;2.00;;;;;21.24;94.99;100517.00;5013565;28;44957;-88
2022/04/12 16:09:53;;;;;;;;;2.75;2.75;;;;;20.97;97.66;100528.25;5016093;28;45261;-88
2022/04/12 16:12:19;;;;;;;;;4.60;2.40;;;;;20.89;98.38;100517.50;5007520;28;44730;-87
2022/04/12 16:14:44;;;;;;;;;3.00;2.00;;;;;20.83;99.47;100526.28;5025811;28;44778;-88
2022/04/12 16:17:11;;;;;;;;;2.50;1.25;;;;;20.70;100.00;100533.09;5009622;28;45401;-89
2022/04/12 16:19:38;;;;;;;;;2.60;2.60;;;;;20.55;100.00;100537.53;5008881;28;47464;-87
2022/04/12 16:22:06;;;;;;;;;1.20;1.20;;;;;20.51;100.00;100539.72;5025352;28;44826;-88
2022/04/12 16:24:33;;;;;;;;;3.80;2.80;;;;;20.25;100.00;100530.94;5023897;28;44790;-89
2022/04/12 16:27:02;;;;;;;;;4.20;2.20;;;;;20.12;100.00;100536.03;5019053;28;45546;-89
2022/04/12 16:29:35;;;;;;;;;2.80;2.00;;;;;20.26;100.00;100544.28;4993996;28;45272;-87
2022/04/12 16:32:01;;;;;;;;;3.60;1.80;;;;;20.24;100.00;100551.69;5002290;28;44746;-88
2022/04/12 16:34:30;;;;;;;;;2.40;2.40;;;;;20.17;100.00;100563.34;5031664;28;44827;-86
2022/04/12 16:36:55;;;;;;;;;3.60;2.00;;;;;20.15;100.00;100558.09;5041620;28;44882;-88
2022/04/12 16:39:21;;;;;;;;;4.00;2.00;;;;;20.12;100.00;100560.31;5059441;28;45506;-87
2022/04/12 16:41:47;;;;;;;;;4.00;2.00;;;;;20.08;100.00;100564.34;5041872;28;45419;-88
2022/04/12 16:44:22;;;;;;;;;2.60;1.20;;;;;20.03;100.00;100563.00;5044902;28;44770;-86
2022/04/12 16:47:34;;;;;;;;;5.00;3.00;;;;;19.97;100.00;100565.53;5043526;28;44893;-88
2022/04/12 16:50:17;;;;;;;;;2.60;1.40;;;;;20.03;100.00;100575.66;5027877;28;45505;-87
2022/04/12 16:53:35;;;;;;;;;1.80;1.00;;;;;19.95;100.00;100575.63;5037567;28;45195;-89
2022/04/12 16:56:01;;;;;;;;;5.00;3.40;;;;;19.80;100.00;100574.63;4989876;28;44875;-90
2022/04/12 16:58:29;;;;;;;;;2.00;2.00;;;;;19.64;100.00;100570.88;5060204;28;45308;-88
2022/04/12 17:00:56;;;;;;;;;3.40;0.80;;;;;19.55;100.00;100579.94;5051875;28;45275;-88
2022/04/12 17:03:22;;;;;;;;;2.80;2.40;;;;;19.61;100.00;100583.84;5054905;28;44621;-87
2022/04/12 17:06:43;;;;;;;;;2.00;2.00;;;;;19.49;100.00;100584.13;5051136;28;44694;-87
2022/04/12 17:09:09;;;;;;;;;4.60;2.00;;;;;19.43;100.00;100587.47;5056468;28;44811;-87
2022/04/12 17:11:37;;;;;;;;;3.00;3.00;;;;;19.44;100.00;100586.47;5075674;28;45330;-88
2022/04/12 17:14:03;;;;;;;;;1.40;1.20;;;;;19.34;100.00;100584.91;5057668;28;45284;-87
2022/04/12 17:16:32;;;;;;;;;4.00;3.00;;;;;19.33;100.00;100583.22;5076159;28;44792;-86
2022/04/12 17:18:57;;;;;;;;;1.60;1.60;;;;;19.23;100.00;100588.75;5076075;28;44777;-86
2022/04/12 17:21:28;;;;;;;;;1.75;1.75;;;;;19.14;100.00;100593.25;5058485;28;46820;-89
2022/04/12 17:24:19;;;;;;;;;2.20;1.60;;;;;19.18;100.00;100588.38;5092700;28;44730;-87
2022/04/12 17:26:48;;;;;;;;;5.20;2.80;;;;;19.21;100.00;100597.00;5069015;28;44643;-89
2022/04/12 17:29:19;;;;;;;;;2.00;2.00;;;;;19.28;100.00;100605.25;5065359;28;45000;-89
2022/04/12 17:31:47;;;;;;;;;4.00;3.20;;;;;19.28;100.00;100607.94;5074438;28;46637;-87
2022/04/12 17:34:17;;;;;;;;;2.00;2.00;;;;;19.23;100.00;100604.91;5092355;28;44747;-89
2022/04/12 17:36:50;;;;;;;;;1.80;0.20;;;;;19.22;100.00;100611.31;5076951;28;44785;-88
2022/04/12 17:39:16;;;;;;;;;3.20;3.20;;;;;19.14;100.00;100606.72;5055011;28;44923;-88
2022/04/12 17:41:41;;;;;;;;;5.00;2.00;;;;;19.09;100.00;100606.34;5064723;28;45419;-87
2022/04/12 17:44:07;;;;;;;;;5.25;2.75;;;;;19.11;100.00;100601.66;5049902;27;45515;-88
2022/04/12 17:46:35;;;;;;;;;4.00;3.50;;;;;18.98;100.00;100595.88;5081280;27;44715;-89
2022/04/12 17:49:01;;;;;;;;;2.80;2.00;;;;;18.98;100.00;100598.56;5070716;28;44780;-89
2022/04/12 17:51:27;;;;;;;;;2.00;2.00;;;;;19.00;100.00;100600.09;5084915;28;45249;-88
2022/04/12 17:53:54;;;;;;;;;8.50;4.75;;;;;18.83;100.00;100594.78;5051088;28;44758;-89
2022/04/12 17:56:20;;;;;;;;;3.20;3.20;;;;;18.74;100.00;100600.09;5066422;28;45488;-88
2022/04/12 17:58:46;;;;;;;;;3.20;2.40;;;;;18.63;100.00;100599.50;5085731;28;44840;-88
2022/04/12 18:01:12;;;;;;;;;4.00;2.50;;;;;18.55;100.00;100589.53;5069116;28;46729;-89
2022/04/12 18:03:39;;;;;;;;;4.80;3.40;;;;;18.53;100.00;100598.78;5067826;28;44761;-89
2022/04/12 18:06:11;;;;;;;;;5.60;2.40;;;;;18.37;100.00;100600.34;5087256;28;45242;-88
2022/04/12 18:09:11;;;;;;;;;1.00;0.00;;;;;18.39;100.00;100611.78;5091945;28;44853;-87
2022/04/12 18:11:33;;;;;;;;;2.00;2.00;;;;;18.36;100.00;100619.31;5075316;28;45100;-88
2022/04/12 18:13:59;;;;;;;;;0.00;0.00;;;;;18.31;100.00;100627.00;5097526;28;45006;-88